createdAt,value
2022-11-04T00:01:07.599Z,12.50
2022-11-04T00:03:09.806Z,12.50
2022-11-04T00:05:11.767Z,12.50
2022-11-04T00:07:32.397Z,12.60
2022-11-04T00:09:34.037Z,12.50
2022-11-04T00:11:54.686Z,12.60
2022-11-04T00:13:57.324Z,12.60
2022-11-04T00:16:20.791Z,12.50
2022-11-04T00:18:22.447Z,12.50
2022-11-04T00:20:42.795Z,12.60
2022-11-04T00:23:06.846Z,12.50
2022-11-04T00:25:28.018Z,12.60
2022-11-04T00:27:48.425Z,12.50
2022-11-04T00:29:50.035Z,12.60
2022-11-04T00:32:10.170Z,12.60
2022-11-04T00:34:11.835Z,12.50
2022-11-04T00:36:13.442Z,12.50
2022-11-04T00:38:15.254Z,12.40
2022-11-04T00:40:17.308Z,12.40
2022-11-04T00:42:18.929Z,12.40
2022-11-04T00:44:20.526Z,12.30
2022-11-04T00:46:22.422Z,12.20
2022-11-04T00:48:24.071Z,12.20
2022-11-04T00:50:25.669Z,12.20
2022-11-04T00:52:27.346Z,12.10
2022-11-04T00:54:28.959Z,12.10
2022-11-04T00:56:30.571Z,12.10
2022-11-04T00:58:32.226Z,12.00
2022-11-04T01:00:33.829Z,12.00
2022-11-04T01:02:35.682Z,11.90
2022-11-04T01:04:37.615Z,11.90
2022-11-04T01:06:39.238Z,11.80
2022-11-04T01:08:41.020Z,11.70
2022-11-04T01:10:45.601Z,11.70
2022-11-04T01:12:47.257Z,11.60
2022-11-04T01:14:49.827Z,11.60
2022-11-04T01:16:51.720Z,11.50
2022-11-04T01:18:53.514Z,11.40
2022-11-04T01:20:55.339Z,11.30
2022-11-04T01:22:57.271Z,11.30
2022-11-04T01:24:58.868Z,11.20
2022-11-04T01:27:00.493Z,11.20
2022-11-04T01:29:02.351Z,11.10
2022-11-04T01:31:07.448Z,11.10
2022-11-04T01:33:09.110Z,11.00
2022-11-04T01:35:10.790Z,11.00
2022-11-04T01:37:12.387Z,10.90
2022-11-04T01:39:14.042Z,11.00
2022-11-04T01:41:20.114Z,10.90
2022-11-04T01:43:22.995Z,10.80
2022-11-04T01:45:24.632Z,10.80
2022-11-04T01:47:26.243Z,10.80
2022-11-04T01:49:33.117Z,10.70
2022-11-04T01:51:36.611Z,10.60
2022-11-04T01:53:40.012Z,10.60
2022-11-04T01:55:45.198Z,10.60
2022-11-04T01:57:48.174Z,10.50
2022-11-04T01:59:49.893Z,10.50
2022-11-04T02:01:51.667Z,10.50
2022-11-04T02:03:55.941Z,10.50
2022-11-04T02:05:58.170Z,10.50
2022-11-04T02:08:02.681Z,10.40
2022-11-04T02:10:04.580Z,10.40
2022-11-04T02:12:24.828Z,10.40
2022-11-04T02:14:26.778Z,10.40
2022-11-04T02:16:39.884Z,10.40
2022-11-04T02:19:00.577Z,10.30
2022-11-04T02:21:13.642Z,10.30
2022-11-04T02:23:34.009Z,10.30
2022-11-04T02:25:35.592Z,10.20
2022-11-04T02:27:55.584Z,10.20
2022-11-04T02:29:57.198Z,10.20
2022-11-04T02:32:17.622Z,10.20
2022-11-04T02:34:19.242Z,10.20
2022-11-04T02:36:27.936Z,10.20
2022-11-04T02:38:29.523Z,10.10
2022-11-04T02:40:38.945Z,10.20
2022-11-04T02:42:46.647Z,10.10
2022-11-04T02:44:57.644Z,10.20
2022-11-04T02:47:02.889Z,10.10
2022-11-04T02:49:27.857Z,10.10
2022-11-04T02:51:32.117Z,10.10
2022-11-04T02:53:38.801Z,10.10
2022-11-04T02:55:45.615Z,10.10
2022-11-04T02:57:47.875Z,10.10
2022-11-04T02:59:52.030Z,10.10
2022-11-04T03:01:54.481Z,10.00
2022-11-04T03:04:00.729Z,10.10
2022-11-04T03:06:03.031Z,10.10
2022-11-04T03:08:09.081Z,10.10
2022-11-04T03:10:16.810Z,10.00
2022-11-04T03:12:20.957Z,10.00
2022-11-04T03:14:25.419Z,10.00
2022-11-04T03:16:28.660Z,10.00
2022-11-04T03:18:34.078Z,9.90
2022-11-04T03:20:36.794Z,9.90
2022-11-04T03:22:38.615Z,9.90
2022-11-04T03:24:41.567Z,9.90
2022-11-04T03:26:46.741Z,9.90
2022-11-04T03:29:07.934Z,9.90
2022-11-04T03:31:13.372Z,9.90
2022-11-04T03:33:17.746Z,9.90
2022-11-04T03:35:19.574Z,9.90
2022-11-04T03:37:21.287Z,9.90
2022-11-04T03:39:22.934Z,9.80
2022-11-04T03:41:30.622Z,9.80
2022-11-04T03:43:34.454Z,9.80
2022-11-04T03:45:36.188Z,9.90
2022-11-04T03:47:37.796Z,9.90
2022-11-04T03:49:39.514Z,9.90
2022-11-04T03:51:41.137Z,9.80
2022-11-04T03:53:42.812Z,9.90
2022-11-04T03:56:03.287Z,9.90
2022-11-04T03:58:08.636Z,9.80
2022-11-04T04:00:12.672Z,9.90
2022-11-04T04:02:17.548Z,9.90
2022-11-04T04:04:25.181Z,9.80
2022-11-04T04:06:28.693Z,9.90
2022-11-04T04:08:56.413Z,9.80
2022-11-04T04:11:17.742Z,9.80
2022-11-04T04:13:21.768Z,9.90
2022-11-04T04:15:26.855Z,9.80
2022-11-04T04:17:32.749Z,9.80
2022-11-04T04:19:34.931Z,9.80
2022-11-04T04:21:40.296Z,9.80
2022-11-04T04:24:01.714Z,9.80
2022-11-04T04:26:23.800Z,9.80
2022-11-04T04:28:25.473Z,9.80
2022-11-04T04:30:27.159Z,9.80
2022-11-04T04:32:29.841Z,9.80
2022-11-04T04:34:32.468Z,9.80
2022-11-04T04:36:37.780Z,9.80
2022-11-04T04:38:59.894Z,9.80
2022-11-04T04:41:25.689Z,9.80
2022-11-04T04:43:45.843Z,9.70
2022-11-04T04:45:52.492Z,9.70
2022-11-04T04:47:54.218Z,9.70
2022-11-04T04:49:59.851Z,9.70
2022-11-04T04:52:05.100Z,9.70
2022-11-04T04:54:06.943Z,9.70
2022-11-04T04:56:08.658Z,9.70
2022-11-04T04:58:10.383Z,9.70
2022-11-04T05:00:14.168Z,9.80
2022-11-04T05:02:16.026Z,9.70
2022-11-04T05:04:17.713Z,9.70
2022-11-04T05:06:19.430Z,9.80
2022-11-04T05:08:21.203Z,9.80
2022-11-04T05:10:22.845Z,9.80
2022-11-04T05:12:24.476Z,9.80
2022-11-04T05:14:26.124Z,9.80
2022-11-04T05:16:27.767Z,9.80
2022-11-04T05:18:29.386Z,9.80
2022-11-04T05:20:34.120Z,9.80
2022-11-04T05:22:35.847Z,9.70
2022-11-04T05:24:37.509Z,9.70
2022-11-04T05:26:39.159Z,9.70
2022-11-04T05:28:40.760Z,9.70
2022-11-04T05:30:42.443Z,9.70
2022-11-04T05:32:44.074Z,9.70
2022-11-04T05:34:45.667Z,9.70
2022-11-04T05:36:47.375Z,9.70
2022-11-04T05:38:53.213Z,9.70
2022-11-04T05:40:57.298Z,9.70
2022-11-04T05:42:59.783Z,9.70
2022-11-04T05:45:01.509Z,9.70
2022-11-04T05:47:03.167Z,9.70
2022-11-04T05:49:05.126Z,9.50
2022-11-04T05:51:06.760Z,9.60
2022-11-04T05:53:08.831Z,9.60
2022-11-04T05:55:10.767Z,9.60
2022-11-04T05:57:12.440Z,9.60
2022-11-04T05:59:14.267Z,9.60
2022-11-04T06:01:29.826Z,9.60
2022-11-04T06:03:31.511Z,9.60
2022-11-04T06:05:33.200Z,9.60
2022-11-04T06:07:34.829Z,9.60
2022-11-04T06:09:39.295Z,9.60
2022-11-04T06:11:40.975Z,9.50
2022-11-04T06:13:42.669Z,9.50
2022-11-04T06:15:44.285Z,9.50
2022-11-04T06:17:45.914Z,9.50
2022-11-04T06:19:47.745Z,9.40
2022-11-04T06:21:49.471Z,9.40
2022-11-04T06:23:51.397Z,9.50
2022-11-04T06:25:53.162Z,9.40
2022-11-04T06:27:54.837Z,9.50
2022-11-04T06:29:56.559Z,9.40
2022-11-04T06:31:58.509Z,9.40
2022-11-04T06:34:00.129Z,9.40
2022-11-04T06:36:02.531Z,9.40
2022-11-04T06:38:04.156Z,9.30
2022-11-04T06:40:06.125Z,9.30
2022-11-04T06:42:07.793Z,9.30
2022-11-04T06:44:09.457Z,9.20
2022-11-04T06:46:27.643Z,9.20
2022-11-04T06:48:30.691Z,9.20
2022-11-04T06:50:32.338Z,9.20
2022-11-04T06:52:38.052Z,9.30
2022-11-04T06:54:42.806Z,9.20
2022-11-04T06:56:44.858Z,9.20
2022-11-04T06:58:50.027Z,9.20
2022-11-04T07:00:53.591Z,9.20
2022-11-04T07:02:55.484Z,9.20
2022-11-04T07:06:59.777Z,9.20
2022-11-04T07:09:01.977Z,9.20
2022-11-04T07:11:04.036Z,9.20
2022-11-04T07:13:05.719Z,9.20
2022-11-04T07:15:07.649Z,9.20
2022-11-04T07:17:09.343Z,9.20
2022-11-04T07:19:10.964Z,9.20
2022-11-04T07:21:12.783Z,9.20
2022-11-04T07:23:14.447Z,9.20
2022-11-04T07:25:16.090Z,9.20
2022-11-04T07:27:17.738Z,9.20
2022-11-04T07:29:19.402Z,9.20
2022-11-04T07:31:22.252Z,9.20
2022-11-04T07:33:24.371Z,9.20
2022-11-04T07:35:26.020Z,9.20
2022-11-04T07:37:27.757Z,9.20
2022-11-04T07:39:29.621Z,9.10
2022-11-04T07:41:31.307Z,9.10
2022-11-04T07:43:32.981Z,9.20
2022-11-04T07:45:34.617Z,9.10
2022-11-04T07:47:36.253Z,9.10
2022-11-04T07:49:37.936Z,9.00
2022-11-04T07:51:39.641Z,9.00
2022-11-04T07:53:41.272Z,9.00
2022-11-04T07:55:45.389Z,9.10
2022-11-04T07:57:47.902Z,9.10
2022-11-04T07:59:49.528Z,9.10
2022-11-04T08:01:51.346Z,9.10
2022-11-04T08:03:53.159Z,9.10
2022-11-04T08:05:55.741Z,9.10
2022-11-04T08:07:57.909Z,9.10
2022-11-04T08:09:59.551Z,9.10
2022-11-04T08:12:01.207Z,9.00
2022-11-04T08:14:03.754Z,9.00
2022-11-04T08:16:06.961Z,9.00
2022-11-04T08:18:08.555Z,9.00
2022-11-04T08:20:10.314Z,9.00
2022-11-04T08:22:11.986Z,9.00
2022-11-04T08:24:13.587Z,9.00
2022-11-04T08:26:16.748Z,9.00
2022-11-04T08:28:18.521Z,9.10
2022-11-04T08:30:20.273Z,9.00
2022-11-04T08:32:22.051Z,9.00
2022-11-04T08:34:23.689Z,9.00
2022-11-04T08:36:30.229Z,9.00
2022-11-04T08:38:32.201Z,8.90
2022-11-04T08:40:33.859Z,8.90
2022-11-04T08:42:35.493Z,8.90
2022-11-04T08:44:39.481Z,8.90
2022-11-04T08:46:42.333Z,8.90
2022-11-04T08:48:44.338Z,8.80
2022-11-04T08:50:50.083Z,8.80
2022-11-04T08:52:51.740Z,8.80
2022-11-04T08:54:57.505Z,8.80
2022-11-04T08:56:59.336Z,8.80
2022-11-04T08:59:02.527Z,8.80
2022-11-04T09:01:06.944Z,8.80
2022-11-04T09:03:09.057Z,8.90
2022-11-04T09:05:10.963Z,8.90
2022-11-04T09:07:12.671Z,8.90
2022-11-04T09:09:15.858Z,8.90
2022-11-04T09:11:18.476Z,8.90
2022-11-04T09:13:20.371Z,8.90
2022-11-04T09:15:22.100Z,8.80
2022-11-04T09:17:23.772Z,8.80
2022-11-04T09:19:25.465Z,8.80
2022-11-04T09:21:28.019Z,8.80
2022-11-04T09:23:29.649Z,8.70
2022-11-04T09:25:33.012Z,8.80
2022-11-04T09:27:35.061Z,8.80
2022-11-04T09:29:37.137Z,8.80
2022-11-04T09:31:39.237Z,8.80
2022-11-04T09:33:41.104Z,8.80
2022-11-04T09:35:43.052Z,8.80
2022-11-04T09:37:44.777Z,8.80
2022-11-04T09:39:50.038Z,8.80
2022-11-04T09:42:19.518Z,8.80
2022-11-04T09:44:27.204Z,8.80
2022-11-04T09:46:30.960Z,8.80
2022-11-04T09:48:38.695Z,8.80
2022-11-04T09:50:44.935Z,8.80
2022-11-04T09:52:49.161Z,8.80
2022-11-04T09:54:53.927Z,8.90
2022-11-04T09:56:57.844Z,8.90
2022-11-04T09:58:59.589Z,8.90
2022-11-04T10:01:10.285Z,8.90
2022-11-04T10:03:20.777Z,9.00
2022-11-04T10:05:34.016Z,9.00
2022-11-04T10:07:41.862Z,9.00
2022-11-04T10:09:43.482Z,9.00
2022-11-04T10:11:54.432Z,9.00
2022-11-04T10:14:14.889Z,9.10
2022-11-04T10:16:31.274Z,9.10
2022-11-04T10:18:36.009Z,9.10
2022-11-04T10:20:43.499Z,9.10
2022-11-04T10:22:56.280Z,9.10
2022-11-04T10:25:20.407Z,9.10
2022-11-04T10:27:25.038Z,9.10
2022-11-04T10:29:36.957Z,9.10
2022-11-04T10:31:39.394Z,9.10
2022-11-04T10:33:43.747Z,9.10
2022-11-04T10:35:57.522Z,9.10
2022-11-04T10:38:08.211Z,9.10
2022-11-04T10:40:18.966Z,9.10
2022-11-04T10:42:22.191Z,9.10
2022-11-04T10:44:28.959Z,9.20
2022-11-04T10:47:03.084Z,9.20
2022-11-04T10:49:07.828Z,9.20
2022-11-04T10:51:09.509Z,9.20
2022-11-04T10:53:17.917Z,9.30
2022-11-04T10:55:28.984Z,9.30
2022-11-04T10:57:30.999Z,9.40
2022-11-04T10:59:47.704Z,9.40
2022-11-04T11:01:51.891Z,9.40
2022-11-04T11:03:54.435Z,9.40
2022-11-04T11:06:13.373Z,9.50
2022-11-04T11:08:27.453Z,9.40
2022-11-04T11:10:32.952Z,9.50
2022-11-04T11:12:56.144Z,9.50
2022-11-04T11:14:57.869Z,9.40
2022-11-04T11:17:15.028Z,9.40
2022-11-04T11:19:20.118Z,9.40
2022-11-04T11:21:23.932Z,9.40
2022-11-04T11:23:33.145Z,9.50
2022-11-04T11:25:35.756Z,9.40
2022-11-04T11:27:37.532Z,9.40
2022-11-04T11:29:42.433Z,9.40
2022-11-04T11:31:44.186Z,9.40
2022-11-04T11:34:03.907Z,9.40
2022-11-04T11:36:18.002Z,9.40
2022-11-04T11:38:22.276Z,9.40
2022-11-04T11:40:28.174Z,9.40
2022-11-04T11:42:30.399Z,9.40
2022-11-04T11:44:36.995Z,9.30
2022-11-04T11:46:38.680Z,9.30
2022-11-04T11:48:44.455Z,9.20
2022-11-04T11:51:00.017Z,9.20
2022-11-04T11:53:14.111Z,9.20
2022-11-04T11:55:15.709Z,9.20
2022-11-04T11:57:37.852Z,9.20
2022-11-04T12:02:33.686Z,9.00
2022-11-04T12:09:41.109Z,9.00
2022-11-04T12:11:54.944Z,9.00
2022-11-04T12:13:58.109Z,9.00
2022-11-04T12:16:15.862Z,9.00
2022-11-04T12:18:35.765Z,9.00
2022-11-04T12:20:37.392Z,9.00
2022-11-04T12:22:57.537Z,9.00
2022-11-04T12:25:22.573Z,9.00
2022-11-04T12:27:27.008Z,9.00
2022-11-04T12:29:55.092Z,9.00
2022-11-04T12:32:15.512Z,9.00
2022-11-04T12:34:26.257Z,9.00
2022-11-04T12:36:53.016Z,9.00
2022-11-04T12:38:54.629Z,9.00
2022-11-04T12:41:32.096Z,9.00
2022-11-04T12:43:42.360Z,9.00
2022-11-04T12:45:56.378Z,8.90
2022-11-04T12:48:10.267Z,8.90
2022-11-04T12:50:20.993Z,8.90
2022-11-04T12:52:25.711Z,8.90
2022-11-04T12:54:30.424Z,8.90
2022-11-04T12:56:40.925Z,8.90
2022-11-04T12:58:45.289Z,8.90
2022-11-04T13:00:49.979Z,8.90
2022-11-04T13:02:58.588Z,8.90
2022-11-04T13:05:03.647Z,8.80
2022-11-04T13:07:10.156Z,8.90
2022-11-04T13:09:15.041Z,8.80
2022-11-04T13:11:22.948Z,8.80
2022-11-04T13:13:28.209Z,8.70
2022-11-04T13:15:30.996Z,8.70
2022-11-04T13:17:34.709Z,8.70
2022-11-04T13:19:36.450Z,8.70
2022-11-04T13:21:38.511Z,8.80
2022-11-04T13:23:42.013Z,8.70
2022-11-04T13:25:45.039Z,8.70
2022-11-04T13:27:48.195Z,8.60
2022-11-04T13:29:51.817Z,8.60
2022-11-04T13:32:01.665Z,8.60
2022-11-04T13:34:06.122Z,8.60
2022-11-04T13:36:07.816Z,8.60
2022-11-04T13:38:13.598Z,8.60
2022-11-04T13:40:20.826Z,8.80
2022-11-04T13:42:25.325Z,8.60
2022-11-04T13:44:28.468Z,8.60
2022-11-04T13:46:31.834Z,8.60
2022-11-04T13:48:34.408Z,8.50
2022-11-04T13:50:36.046Z,8.50
2022-11-04T13:52:52.323Z,8.50
2022-11-04T13:54:57.183Z,8.50
2022-11-04T13:57:04.776Z,8.50
2022-11-04T13:59:18.486Z,8.50
2022-11-04T14:01:23.624Z,8.50
2022-11-04T14:03:45.569Z,8.50
2022-11-04T14:06:03.722Z,8.50
2022-11-04T14:08:09.779Z,8.50
2022-11-04T14:10:30.254Z,8.50
2022-11-04T14:12:33.171Z,8.50
2022-11-04T14:14:34.974Z,8.50
2022-11-04T14:16:37.579Z,8.50
2022-11-04T14:18:42.266Z,8.50
2022-11-04T14:21:01.536Z,8.50
2022-11-04T14:23:04.633Z,8.50
2022-11-04T14:25:22.009Z,8.50
2022-11-04T14:27:30.450Z,8.50
2022-11-04T14:29:32.131Z,8.50
2022-11-04T14:31:41.176Z,8.50
2022-11-04T14:33:53.826Z,8.50
2022-11-04T14:35:56.332Z,8.50
2022-11-04T14:38:00.937Z,8.50
2022-11-04T14:40:05.340Z,8.50
2022-11-04T14:42:12.246Z,8.60
2022-11-04T14:44:14.357Z,8.60
2022-11-04T14:46:20.746Z,8.60
2022-11-04T14:48:22.526Z,8.60
2022-11-04T14:50:26.288Z,8.60
2022-11-04T14:52:33.889Z,8.60
2022-11-04T14:54:36.584Z,8.60
2022-11-04T14:56:38.226Z,8.60
2022-11-04T14:58:51.469Z,8.60
2022-11-04T15:00:55.350Z,8.50
2022-11-04T15:03:01.649Z,8.60
2022-11-04T15:05:03.417Z,8.50
2022-11-04T15:07:05.055Z,8.50
2022-11-04T15:09:20.162Z,8.50
2022-11-04T15:11:45.352Z,8.50
2022-11-04T15:13:47.936Z,8.50
2022-11-04T15:15:50.670Z,8.50
2022-11-04T15:17:52.859Z,8.50
2022-11-04T15:19:56.049Z,8.40
2022-11-04T15:22:02.288Z,8.40
2022-11-04T15:24:04.247Z,8.30
2022-11-04T15:26:06.288Z,8.30
2022-11-04T15:28:15.864Z,8.30
2022-11-04T15:30:28.217Z,8.20
2022-11-04T15:32:29.952Z,8.20
2022-11-04T15:34:32.498Z,8.20
2022-11-04T15:36:39.446Z,8.30
2022-11-04T15:38:44.337Z,8.20
2022-11-04T15:40:46.498Z,8.20
2022-11-04T15:42:48.690Z,8.20
2022-11-04T15:44:51.837Z,8.20
2022-11-04T15:47:00.091Z,8.20
2022-11-04T15:49:02.957Z,8.20
2022-11-04T15:51:15.870Z,8.10
2022-11-04T15:53:18.923Z,8.10
2022-11-04T15:55:22.373Z,8.10
2022-11-04T15:57:34.386Z,8.10
2022-11-04T15:59:37.440Z,8.10
2022-11-04T16:01:49.413Z,8.10
2022-11-04T16:03:53.209Z,8.00
2022-11-04T16:06:05.610Z,8.00
2022-11-04T16:08:19.419Z,8.00
2022-11-04T16:10:34.881Z,8.00
2022-11-04T16:12:36.507Z,8.00
2022-11-04T16:14:38.170Z,8.00
2022-11-04T16:16:45.453Z,8.00
2022-11-04T16:18:57.027Z,8.00
2022-11-04T16:20:59.477Z,7.90
2022-11-04T16:23:02.086Z,7.90
2022-11-04T16:25:04.991Z,7.90
2022-11-04T16:27:10.785Z,7.80
2022-11-04T16:29:21.458Z,7.80
2022-11-04T16:31:25.104Z,7.80
2022-11-04T16:33:26.766Z,7.80
2022-11-04T16:35:28.477Z,7.70
2022-11-04T16:37:31.667Z,7.70
2022-11-04T16:39:33.379Z,7.70
2022-11-04T16:41:36.312Z,7.60
2022-11-04T16:43:40.674Z,7.60
2022-11-04T16:45:47.264Z,7.60
2022-11-04T16:47:51.715Z,7.50
2022-11-04T16:49:53.328Z,7.50
2022-11-04T16:51:56.264Z,7.40
2022-11-04T16:53:57.864Z,7.40
2022-11-04T16:55:59.842Z,7.40
2022-11-04T16:58:02.796Z,7.30
2022-11-04T17:00:06.568Z,7.30
2022-11-04T17:02:17.537Z,7.20
2022-11-04T17:04:19.437Z,7.20
2022-11-04T17:06:21.119Z,7.20
2022-11-04T17:08:26.395Z,7.20
2022-11-04T17:10:28.316Z,7.20
2022-11-04T17:12:29.959Z,7.20
2022-11-04T17:14:31.585Z,7.20
2022-11-04T17:16:33.271Z,7.10
2022-11-04T17:18:35.226Z,7.10
2022-11-04T17:20:36.912Z,7.10
2022-11-04T17:22:38.659Z,7.10
2022-11-04T17:24:40.361Z,7.10
2022-11-04T17:26:42.108Z,7.20
2022-11-04T17:28:43.792Z,7.10
2022-11-04T17:30:45.695Z,7.10
2022-11-04T17:32:48.177Z,7.10
2022-11-04T17:34:49.797Z,7.10
2022-11-04T17:36:52.289Z,7.10
2022-11-04T17:38:53.925Z,7.10
2022-11-04T17:41:14.327Z,7.10
2022-11-04T17:43:34.724Z,7.10
2022-11-04T17:45:36.394Z,7.10
2022-11-04T17:47:38.367Z,7.10
2022-11-04T17:49:40.036Z,7.00
2022-11-04T17:51:42.983Z,7.20
2022-11-04T17:53:44.619Z,7.10
2022-11-04T17:55:46.487Z,7.10
2022-11-04T17:57:48.091Z,7.10
2022-11-04T17:59:49.880Z,7.10
2022-11-04T18:01:51.820Z,7.10
2022-11-04T18:03:54.014Z,7.10
2022-11-04T18:05:58.892Z,7.10
2022-11-04T18:08:01.853Z,7.10
2022-11-04T18:10:03.647Z,7.10
2022-11-04T18:12:24.541Z,7.10
2022-11-04T18:14:26.466Z,7.10
2022-11-04T18:16:28.087Z,7.10
2022-11-04T18:18:29.751Z,7.10
2022-11-04T18:20:31.670Z,7.00
2022-11-04T18:22:33.294Z,7.00
2022-11-04T18:24:35.020Z,7.10
2022-11-04T18:26:36.773Z,7.00
2022-11-04T18:28:38.895Z,7.00
2022-11-04T18:30:40.654Z,7.00
2022-11-04T18:32:42.287Z,7.00
2022-11-04T18:34:43.927Z,7.00
2022-11-04T18:36:46.030Z,6.90
2022-11-04T18:38:47.700Z,6.90
2022-11-04T18:40:49.344Z,7.00
2022-11-04T18:42:51.018Z,6.90
2022-11-04T18:44:52.683Z,7.00
2022-11-04T18:46:54.286Z,6.90
2022-11-04T18:48:56.033Z,6.90
2022-11-04T18:50:59.338Z,7.00
2022-11-04T18:53:00.986Z,7.00
2022-11-04T18:55:02.632Z,6.90
2022-11-04T18:57:04.726Z,6.90
2022-11-04T18:59:08.397Z,6.90
2022-11-04T19:01:21.058Z,6.90
2022-11-04T19:03:23.483Z,6.90
2022-11-04T19:05:25.180Z,6.80
2022-11-04T19:07:26.818Z,6.90
2022-11-04T19:12:10.028Z,6.80
2022-11-04T19:14:16.139Z,6.90
2022-11-04T19:16:18.057Z,6.80
2022-11-04T19:18:19.691Z,6.80
2022-11-04T19:20:21.334Z,6.70
2022-11-04T19:22:22.958Z,6.70
2022-11-04T19:24:24.585Z,6.70
2022-11-04T19:26:27.552Z,6.70
2022-11-04T19:28:44.465Z,6.60
2022-11-04T19:30:59.184Z,6.60
2022-11-04T19:33:00.978Z,6.60
2022-11-04T19:35:02.637Z,6.60
2022-11-04T19:37:04.316Z,6.60
2022-11-04T19:39:06.315Z,6.60
2022-11-04T19:41:43.648Z,6.50
2022-11-04T19:43:45.271Z,6.50
2022-11-04T19:45:49.452Z,6.50
2022-11-04T19:47:51.194Z,6.50
2022-11-04T19:49:52.899Z,6.50
2022-11-04T19:51:54.626Z,6.50
2022-11-04T19:53:56.571Z,6.50
2022-11-04T19:55:58.684Z,6.40
2022-11-04T19:58:01.808Z,6.40
2022-11-04T20:00:03.934Z,6.40
2022-11-04T20:02:05.763Z,6.30
2022-11-04T20:04:07.559Z,6.30
2022-11-04T20:06:11.147Z,6.30
2022-11-04T20:08:13.465Z,6.30
2022-11-04T20:10:15.346Z,6.20
2022-11-04T20:12:35.577Z,6.20
2022-11-04T20:14:37.179Z,6.20
2022-11-04T20:16:40.569Z,6.10
2022-11-04T20:18:42.605Z,6.10
2022-11-04T20:20:44.257Z,6.10
2022-11-04T20:22:45.955Z,6.00
2022-11-04T20:24:47.640Z,6.00
2022-11-04T20:26:49.278Z,6.00
2022-11-04T20:28:54.287Z,5.90
2022-11-04T20:30:55.959Z,5.90
2022-11-04T20:32:57.596Z,6.00
2022-11-04T20:34:59.583Z,6.00
2022-11-04T20:37:01.283Z,5.90
2022-11-04T20:39:16.646Z,5.80
2022-11-04T20:41:21.385Z,5.80
2022-11-04T20:43:22.973Z,5.80
2022-11-04T20:45:24.637Z,5.70
2022-11-04T20:47:26.296Z,5.70
2022-11-04T20:49:27.937Z,5.70
2022-11-04T20:51:31.301Z,5.70
2022-11-04T20:53:33.108Z,5.70
2022-11-04T20:55:35.211Z,5.70
2022-11-04T20:57:36.849Z,5.70
2022-11-04T20:59:38.501Z,5.60
2022-11-04T21:01:41.124Z,5.60
2022-11-04T21:03:43.694Z,5.60
2022-11-04T21:05:45.490Z,5.60
2022-11-04T21:07:47.100Z,5.50
2022-11-04T21:09:51.032Z,5.50
2022-11-04T21:11:52.850Z,5.50
2022-11-04T21:13:55.150Z,5.50
2022-11-04T21:15:58.449Z,5.50
2022-11-04T21:18:00.266Z,5.50
2022-11-04T21:20:01.953Z,5.40
2022-11-04T21:22:03.699Z,5.40
2022-11-04T21:24:06.338Z,5.40
2022-11-04T21:26:09.308Z,5.40
2022-11-04T21:28:11.828Z,5.40
2022-11-04T21:30:13.765Z,5.40
2022-11-04T21:32:15.512Z,5.40
2022-11-04T21:34:17.147Z,5.30
2022-11-04T21:36:19.208Z,5.30
2022-11-04T21:38:20.863Z,5.30
2022-11-04T21:40:22.513Z,5.30
2022-11-04T21:42:24.167Z,5.20
2022-11-04T21:44:25.923Z,5.20
2022-11-04T21:46:28.667Z,5.20
2022-11-04T21:48:31.584Z,5.20
2022-11-04T21:50:33.219Z,5.20
2022-11-04T21:52:35.283Z,5.20
2022-11-04T21:54:36.928Z,5.10
2022-11-04T21:56:38.562Z,5.10
2022-11-04T21:58:40.298Z,5.10
2022-11-04T22:00:41.915Z,5.10
2022-11-04T22:02:43.800Z,5.10
2022-11-04T22:04:45.527Z,5.10
2022-11-04T22:06:47.166Z,5.10
2022-11-04T22:08:53.665Z,5.10
2022-11-04T22:10:55.934Z,5.10
2022-11-04T22:12:57.576Z,5.00
2022-11-04T22:14:59.195Z,5.10
2022-11-04T22:17:00.846Z,5.10
2022-11-04T22:19:03.635Z,5.10
2022-11-04T22:21:06.421Z,5.10
2022-11-04T22:23:08.369Z,5.10
2022-11-04T22:25:10.799Z,5.10
2022-11-04T22:27:12.477Z,5.10
2022-11-04T22:29:14.185Z,5.10
2022-11-04T22:31:18.046Z,5.20
2022-11-04T22:33:19.794Z,5.20
2022-11-04T22:35:21.701Z,5.20
2022-11-04T22:37:23.346Z,5.20
2022-11-04T22:39:25.001Z,5.20
2022-11-04T22:41:28.327Z,5.20
2022-11-04T22:43:30.093Z,5.30
2022-11-04T22:45:31.889Z,5.30
2022-11-04T22:47:33.585Z,5.30
2022-11-04T22:49:35.184Z,5.30
2022-11-04T22:51:36.900Z,5.40
2022-11-04T22:53:38.820Z,5.40
2022-11-04T22:55:40.713Z,5.40
2022-11-04T22:57:42.432Z,5.40
2022-11-04T22:59:44.050Z,5.50
2022-11-04T23:01:45.737Z,5.50
2022-11-04T23:03:47.699Z,5.50
2022-11-04T23:05:53.318Z,5.50
2022-11-04T23:07:56.786Z,5.50
2022-11-04T23:10:16.850Z,5.60
2022-11-04T23:12:37.053Z,5.60
2022-11-04T23:14:57.244Z,5.60
2022-11-04T23:17:17.434Z,5.60
2022-11-04T23:19:19.219Z,5.60
2022-11-04T23:21:40.366Z,5.60
2022-11-04T23:24:00.463Z,5.70
2022-11-04T23:26:02.067Z,5.60
2022-11-04T23:28:22.202Z,5.60
2022-11-04T23:30:27.821Z,5.70
2022-11-04T23:32:29.445Z,5.70
2022-11-04T23:34:49.810Z,5.70
2022-11-04T23:37:10.184Z,5.80
2022-11-04T23:39:11.824Z,5.80
2022-11-04T23:41:31.835Z,5.80
2022-11-04T23:43:33.964Z,5.80
2022-11-04T23:45:54.160Z,5.90
2022-11-04T23:48:14.171Z,5.90
2022-11-04T23:50:34.351Z,5.90
2022-11-04T23:52:54.430Z,5.90
2022-11-04T23:55:14.629Z,5.90
2022-11-04T23:57:35.512Z,5.90
2022-11-04T23:59:55.778Z,6.00
